createdAt,value
2019-02-19T00:01:57.809Z,8.70
2019-02-19T00:04:26.310Z,8.70
2019-02-19T00:06:54.690Z,8.70
2019-02-19T00:09:22.963Z,8.80
2019-02-19T00:11:51.315Z,8.60
2019-02-19T00:14:19.621Z,8.60
2019-02-19T00:16:47.928Z,8.50
2019-02-19T00:19:16.276Z,8.40
2019-02-19T00:21:44.588Z,8.30
2019-02-19T00:24:13.924Z,8.30
2019-02-19T00:26:42.351Z,8.30
2019-02-19T00:29:10.696Z,8.30
2019-02-19T00:31:39.018Z,8.30
2019-02-19T00:34:07.296Z,8.30
2019-02-19T00:36:35.578Z,8.20
2019-02-19T00:39:04.793Z,8.10
2019-02-19T00:41:33.158Z,8.00
2019-02-19T00:44:01.475Z,8.20
2019-02-19T00:46:29.757Z,8.00
2019-02-19T00:48:58.070Z,8.00
2019-02-19T00:51:26.431Z,8.00
2019-02-19T00:53:54.755Z,7.80
2019-02-19T00:56:23.035Z,7.60
2019-02-19T00:58:51.311Z,7.60
2019-02-19T01:01:19.623Z,7.50
2019-02-19T01:03:47.906Z,7.50
2019-02-19T01:06:16.849Z,7.50
2019-02-19T01:08:45.278Z,7.40
2019-02-19T01:11:13.548Z,7.50
2019-02-19T01:13:41.855Z,7.50
2019-02-19T01:16:10.705Z,7.40
2019-02-19T01:18:39.220Z,7.40
2019-02-19T01:21:07.573Z,7.50
2019-02-19T01:23:35.879Z,7.40
2019-02-19T01:26:04.183Z,7.20
2019-02-19T01:28:32.581Z,7.10
2019-02-19T01:31:00.883Z,7.20
2019-02-19T01:33:29.194Z,7.20
2019-02-19T01:35:57.475Z,7.10
2019-02-19T01:38:25.784Z,7.20
2019-02-19T01:40:54.136Z,7.20
2019-02-19T01:43:22.443Z,7.20
2019-02-19T01:45:50.719Z,7.30
2019-02-19T01:48:19.585Z,7.40
2019-02-19T01:50:47.919Z,7.60
2019-02-19T01:53:16.236Z,7.70
2019-02-19T01:55:44.587Z,7.60
2019-02-19T01:58:12.893Z,7.40
2019-02-19T02:00:41.172Z,7.20
2019-02-19T02:03:09.478Z,7.30
2019-02-19T02:05:37.760Z,7.30
2019-02-19T02:08:06.064Z,7.40
2019-02-19T02:10:34.454Z,7.40
2019-02-19T02:13:02.732Z,7.60
2019-02-19T02:15:31.053Z,7.70
2019-02-19T02:17:59.432Z,7.70
2019-02-19T02:20:27.741Z,7.70
2019-02-19T02:22:56.023Z,7.70
2019-02-19T02:25:24.338Z,7.70
2019-02-19T02:27:52.715Z,7.70
2019-02-19T02:30:20.995Z,7.60
2019-02-19T02:32:49.429Z,7.60
2019-02-19T02:35:17.744Z,7.60
2019-02-19T02:37:46.106Z,7.60
2019-02-19T02:40:14.765Z,7.60
2019-02-19T02:42:43.163Z,7.60
2019-02-19T02:45:11.515Z,7.60
2019-02-19T02:47:39.899Z,7.60
2019-02-19T02:50:08.184Z,7.70
2019-02-19T02:52:37.143Z,7.70
2019-02-19T02:55:05.552Z,7.60
2019-02-19T02:57:33.860Z,7.60
2019-02-19T03:00:02.173Z,7.60
2019-02-19T03:02:30.548Z,7.60
2019-02-19T03:04:58.894Z,7.60
2019-02-19T03:07:34.541Z,7.70
2019-02-19T03:10:02.916Z,7.70
2019-02-19T03:12:31.312Z,7.70
2019-02-19T03:14:59.972Z,7.70
2019-02-19T03:17:28.243Z,7.80
2019-02-19T03:19:56.555Z,7.80
2019-02-19T03:22:24.869Z,7.80
2019-02-19T03:24:53.256Z,7.80
2019-02-19T03:27:21.531Z,7.80
2019-02-19T03:29:49.844Z,7.80
2019-02-19T03:32:18.216Z,7.80
2019-02-19T03:34:46.723Z,7.80
2019-02-19T03:37:15.059Z,7.80
2019-02-19T03:39:43.375Z,7.80
2019-02-19T03:42:11.648Z,7.80
2019-02-19T03:44:39.981Z,7.80
2019-02-19T03:47:08.319Z,7.70
2019-02-19T03:49:36.609Z,7.80
2019-02-19T03:52:04.998Z,7.80
2019-02-19T03:54:33.390Z,7.80
2019-02-19T03:57:01.729Z,7.80
2019-02-19T03:59:30.016Z,7.80
2019-02-19T04:01:58.300Z,7.80
2019-02-19T04:04:26.615Z,7.80
2019-02-19T04:06:54.905Z,7.80
2019-02-19T04:09:23.216Z,7.90
2019-02-19T04:11:51.493Z,7.80
2019-02-19T04:14:19.812Z,7.80
2019-02-19T04:16:48.959Z,7.80
2019-02-19T04:19:17.472Z,7.80
2019-02-19T04:21:45.871Z,7.80
2019-02-19T04:24:14.154Z,7.80
2019-02-19T04:26:42.507Z,7.70
2019-02-19T04:29:10.843Z,7.70
2019-02-19T04:31:39.203Z,7.70
2019-02-19T04:34:07.478Z,7.70
2019-02-19T04:36:35.811Z,7.70
2019-02-19T04:39:04.835Z,7.70
2019-02-19T04:41:33.115Z,7.70
2019-02-19T04:44:01.436Z,7.70
2019-02-19T04:46:31.793Z,7.70
2019-02-19T04:48:59.752Z,7.70
2019-02-19T04:51:28.077Z,7.60
2019-02-19T04:53:56.801Z,7.50
2019-02-19T04:56:25.159Z,7.50
2019-02-19T04:58:53.725Z,7.60
2019-02-19T05:01:22.065Z,7.50
2019-02-19T05:03:50.467Z,7.40
2019-02-19T05:06:18.858Z,7.40
2019-02-19T05:08:47.225Z,7.40
2019-02-19T05:11:15.605Z,7.40
2019-02-19T05:13:43.964Z,7.30
2019-02-19T05:16:12.365Z,7.30
2019-02-19T05:18:40.744Z,7.20
2019-02-19T05:21:09.060Z,7.20
2019-02-19T05:23:37.333Z,7.10
2019-02-19T05:26:05.619Z,7.20
2019-02-19T05:28:33.943Z,7.10
2019-02-19T05:31:05.506Z,7.10
2019-02-19T05:33:33.879Z,7.10
2019-02-19T05:36:02.285Z,7.10
2019-02-19T05:38:30.685Z,7.10
2019-02-19T05:40:58.971Z,7.10
2019-02-19T05:43:27.737Z,7.10
2019-02-19T05:45:56.072Z,7.00
2019-02-19T05:48:24.395Z,7.00
2019-02-19T05:50:52.784Z,7.00
2019-02-19T05:53:21.091Z,7.00
2019-02-19T05:55:49.411Z,7.00
2019-02-19T05:58:17.692Z,7.00
2019-02-19T06:00:46.008Z,7.00
2019-02-19T06:03:14.291Z,6.90
2019-02-19T06:05:42.679Z,7.00
2019-02-19T06:08:10.955Z,7.00
2019-02-19T06:10:39.255Z,7.00
2019-02-19T06:13:07.542Z,7.00
2019-02-19T06:15:35.937Z,7.00
2019-02-19T06:18:04.338Z,7.00
2019-02-19T06:20:32.725Z,7.00
2019-02-19T06:23:01.074Z,7.00
2019-02-19T06:25:29.993Z,7.00
2019-02-19T06:27:58.389Z,7.00
2019-02-19T06:30:26.690Z,7.00
2019-02-19T06:32:55.432Z,7.00
2019-02-19T06:35:23.740Z,7.00
2019-02-19T06:37:52.095Z,7.00
2019-02-19T06:40:28.724Z,7.00
2019-02-19T06:42:57.106Z,7.00
2019-02-19T06:45:25.383Z,7.00
2019-02-19T06:47:53.698Z,7.00
2019-02-19T06:50:21.976Z,7.00
2019-02-19T06:52:50.295Z,7.00
2019-02-19T06:55:18.611Z,7.00
2019-02-19T06:57:46.923Z,7.00
2019-02-19T07:00:15.198Z,7.00
2019-02-19T07:02:48.131Z,7.10
2019-02-19T07:05:18.057Z,7.10
2019-02-19T07:07:46.474Z,7.10
2019-02-19T07:10:14.747Z,7.10
2019-02-19T07:12:43.136Z,7.10
2019-02-19T07:15:11.426Z,7.10
2019-02-19T07:17:39.800Z,7.10
2019-02-19T07:20:09.592Z,7.10
2019-02-19T07:22:37.918Z,7.10
2019-02-19T07:25:09.120Z,7.10
2019-02-19T07:27:37.402Z,7.10
2019-02-19T07:30:08.459Z,7.10
2019-02-19T07:32:36.739Z,7.10
2019-02-19T07:35:07.256Z,7.10
2019-02-19T07:37:35.567Z,7.10
2019-02-19T07:40:04.918Z,7.10
2019-02-19T07:42:33.235Z,7.10
2019-02-19T07:45:01.592Z,7.10
2019-02-19T07:47:29.972Z,7.20
2019-02-19T07:49:58.285Z,7.20
2019-02-19T07:52:26.668Z,7.20
2019-02-19T07:54:55.505Z,7.20
2019-02-19T07:57:23.919Z,7.20
2019-02-19T07:59:52.235Z,7.30
2019-02-19T08:02:20.547Z,7.30
2019-02-19T08:04:51.648Z,7.40
2019-02-19T08:07:20.032Z,7.40
2019-02-19T08:09:48.428Z,7.50
2019-02-19T08:12:16.706Z,7.60
2019-02-19T08:14:44.990Z,7.70
2019-02-19T08:17:13.303Z,7.60
2019-02-19T08:19:41.584Z,7.60
2019-02-19T08:22:09.899Z,7.50
2019-02-19T08:24:38.176Z,7.50
2019-02-19T08:27:06.507Z,7.50
2019-02-19T08:29:34.871Z,7.50
2019-02-19T08:32:03.223Z,7.50
2019-02-19T08:34:31.607Z,7.50
2019-02-19T08:36:59.888Z,7.50
2019-02-19T08:39:28.284Z,7.50
2019-02-19T08:41:56.632Z,7.50
2019-02-19T08:44:24.940Z,7.50
2019-02-19T08:46:53.245Z,7.50
2019-02-19T08:49:21.621Z,7.60
2019-02-19T08:51:55.899Z,7.60
2019-02-19T08:54:20.028Z,7.70
2019-02-19T08:56:48.353Z,7.80
2019-02-19T08:59:16.699Z,7.80
2019-02-19T09:01:44.985Z,7.80
2019-02-19T09:04:13.364Z,7.80
2019-02-19T09:06:41.650Z,7.70
2019-02-19T09:09:10.040Z,7.70
2019-02-19T09:11:38.392Z,7.70
2019-02-19T09:14:06.781Z,7.70
2019-02-19T09:16:35.165Z,7.80
2019-02-19T09:19:03.576Z,7.70
2019-02-19T09:21:31.928Z,7.80
2019-02-19T09:24:09.040Z,8.00
2019-02-19T09:26:30.281Z,8.20
2019-02-19T09:28:58.558Z,8.40
2019-02-19T09:31:26.865Z,8.50
2019-02-19T09:33:55.176Z,8.40
2019-02-19T09:36:23.458Z,8.70
2019-02-19T09:38:51.739Z,8.50
2019-02-19T09:41:20.115Z,8.40
2019-02-19T09:43:48.423Z,8.30
2019-02-19T09:46:16.732Z,8.30
2019-02-19T09:48:45.011Z,8.20
2019-02-19T09:51:13.326Z,8.10
2019-02-19T09:53:41.606Z,8.20
2019-02-19T09:56:09.913Z,8.30
2019-02-19T09:58:38.250Z,8.30
2019-02-19T10:01:06.524Z,8.30
2019-02-19T10:03:35.367Z,8.30
2019-02-19T10:06:03.730Z,8.30
2019-02-19T10:08:32.068Z,8.40
2019-02-19T10:11:00.391Z,8.50
2019-02-19T10:13:28.672Z,8.70
2019-02-19T10:15:57.001Z,8.60
2019-02-19T10:18:25.352Z,8.60
2019-02-19T10:20:53.639Z,8.80
2019-02-19T10:23:22.034Z,8.80
2019-02-19T10:25:50.351Z,8.70
2019-02-19T10:28:18.659Z,8.70
2019-02-19T10:30:47.046Z,8.70
2019-02-19T10:33:15.423Z,8.60
2019-02-19T10:35:43.698Z,8.70
2019-02-19T10:38:12.040Z,8.60
2019-02-19T10:40:40.424Z,8.50
2019-02-19T10:43:08.828Z,8.50
2019-02-19T10:45:37.153Z,8.60
2019-02-19T10:48:05.417Z,8.60
2019-02-19T10:50:33.744Z,8.60
2019-02-19T10:53:03.052Z,8.90
2019-02-19T10:55:31.428Z,9.00
2019-02-19T10:57:59.709Z,9.30
2019-02-19T11:00:27.997Z,9.70
2019-02-19T11:02:56.378Z,9.90
2019-02-19T11:05:24.719Z,9.90
2019-02-19T11:07:53.023Z,9.90
2019-02-19T11:10:21.403Z,9.90
2019-02-19T11:12:49.682Z,9.90
2019-02-19T11:15:17.993Z,10.10
2019-02-19T11:17:46.311Z,9.90
2019-02-19T11:20:16.682Z,9.60
2019-02-19T11:22:45.026Z,9.60
2019-02-19T11:25:13.350Z,9.30
2019-02-19T11:27:41.694Z,9.40
2019-02-19T11:30:13.276Z,9.50
2019-02-19T11:32:41.558Z,9.40
2019-02-19T11:35:10.115Z,9.30
2019-02-19T11:37:38.428Z,9.30
2019-02-19T11:40:14.472Z,9.30
2019-02-19T11:42:42.889Z,9.40
2019-02-19T11:45:18.863Z,9.50
2019-02-19T11:47:47.215Z,9.70
2019-02-19T11:50:15.609Z,9.60
2019-02-19T11:52:43.942Z,9.40
2019-02-19T11:55:17.428Z,9.50
2019-02-19T11:57:45.707Z,9.50
2019-02-19T12:00:36.837Z,9.50
2019-02-19T12:03:05.151Z,9.40
2019-02-19T12:05:33.507Z,9.40
2019-02-19T12:08:21.312Z,9.50
2019-02-19T12:10:49.584Z,9.60
2019-02-19T12:13:17.884Z,9.50
2019-02-19T12:15:46.263Z,9.50
2019-02-19T12:18:14.530Z,9.60
2019-02-19T12:20:42.839Z,9.50
2019-02-19T12:23:11.215Z,9.50
2019-02-19T12:25:39.492Z,9.50
2019-02-19T12:28:07.768Z,9.60
2019-02-19T12:30:36.074Z,9.70
2019-02-19T12:33:04.428Z,9.70
2019-02-19T12:35:32.726Z,9.70
2019-02-19T12:38:01.004Z,9.70
2019-02-19T12:40:29.390Z,9.50
2019-02-19T12:42:57.775Z,9.60
2019-02-19T12:45:26.042Z,9.60
2019-02-19T12:47:54.359Z,9.70
2019-02-19T12:50:22.716Z,9.50
2019-02-19T12:52:51.032Z,9.60
2019-02-19T12:55:19.379Z,9.70
2019-02-19T12:57:47.755Z,9.60
2019-02-19T13:00:17.362Z,9.60
2019-02-19T13:02:45.649Z,9.50
2019-02-19T13:05:15.297Z,9.50
2019-02-19T13:07:43.644Z,9.50
2019-02-19T13:10:12.570Z,9.50
2019-02-19T13:12:40.929Z,9.50
2019-02-19T13:15:17.399Z,9.60
2019-02-19T13:17:45.748Z,9.90
2019-02-19T13:20:14.812Z,10.00
2019-02-19T13:22:43.202Z,10.10
2019-02-19T13:25:12.100Z,10.10
2019-02-19T13:27:40.491Z,10.10
2019-02-19T13:30:14.515Z,10.00
2019-02-19T13:32:42.836Z,10.20
2019-02-19T13:35:12.446Z,10.10
2019-02-19T13:37:40.729Z,10.30
2019-02-19T13:40:12.178Z,10.50
2019-02-19T13:42:40.493Z,10.30
2019-02-19T13:45:11.318Z,10.20
2019-02-19T13:47:39.633Z,10.10
2019-02-19T13:50:10.811Z,10.00
2019-02-19T13:52:40.801Z,10.20
2019-02-19T13:55:10.795Z,10.10
2019-02-19T13:57:39.198Z,10.20
2019-02-19T14:00:10.934Z,10.10
2019-02-19T14:02:39.291Z,9.90
2019-02-19T14:05:08.584Z,10.00
2019-02-19T14:07:36.930Z,10.00
2019-02-19T14:10:08.189Z,10.10
2019-02-19T14:12:36.547Z,10.00
2019-02-19T14:15:09.126Z,9.90
2019-02-19T14:17:37.427Z,9.90
2019-02-19T14:20:09.112Z,9.90
2019-02-19T14:22:54.231Z,9.80
2019-02-19T14:25:34.640Z,9.80
2019-02-19T14:28:20.987Z,9.90
2019-02-19T14:31:05.647Z,9.80
2019-02-19T14:33:35.663Z,9.80
2019-02-19T14:36:09.051Z,9.80
2019-02-19T14:38:44.863Z,9.80
2019-02-19T14:41:30.974Z,9.70
2019-02-19T14:44:12.955Z,9.70
2019-02-19T14:46:59.011Z,9.70
2019-02-19T14:49:37.462Z,9.70
2019-02-19T14:52:09.613Z,9.70
2019-02-19T14:54:57.798Z,9.70
2019-02-19T14:57:30.734Z,9.70
2019-02-19T15:00:00.768Z,9.70
2019-02-19T15:02:40.087Z,9.60
2019-02-19T15:05:22.273Z,9.60
2019-02-19T15:08:01.271Z,9.60
2019-02-19T15:10:33.987Z,9.60
2019-02-19T15:13:06.905Z,9.50
2019-02-19T15:15:42.916Z,9.50
2019-02-19T15:18:12.868Z,9.50
2019-02-19T15:20:42.845Z,9.50
2019-02-19T15:23:12.849Z,9.50
2019-02-19T15:25:59.259Z,9.50
2019-02-19T15:28:35.477Z,9.50
2019-02-19T15:31:21.467Z,9.50
2019-02-19T15:33:58.281Z,9.50
2019-02-19T15:36:28.236Z,9.50
2019-02-19T15:39:04.049Z,9.50
2019-02-19T15:41:47.421Z,9.50
2019-02-19T15:44:32.383Z,9.50
2019-02-19T15:47:02.335Z,9.50
2019-02-19T15:49:47.529Z,9.40
2019-02-19T15:52:25.348Z,9.50
2019-02-19T15:55:13.368Z,9.50
2019-02-19T15:57:49.024Z,9.60
2019-02-19T16:00:35.675Z,9.60
2019-02-19T16:03:08.047Z,9.70
2019-02-19T16:05:38.015Z,9.70
2019-02-19T16:08:14.070Z,9.70
2019-02-19T16:10:53.865Z,9.70
2019-02-19T16:13:26.624Z,9.50
2019-02-19T16:16:13.391Z,9.50
2019-02-19T16:18:49.521Z,9.40
2019-02-19T16:21:34.908Z,9.30
2019-02-19T16:24:04.955Z,9.30
2019-02-19T16:26:40.676Z,9.20
2019-02-19T16:29:13.507Z,9.20
2019-02-19T16:32:00.086Z,9.20
2019-02-19T16:34:39.080Z,9.10
2019-02-19T16:37:09.207Z,9.10
2019-02-19T16:39:42.203Z,9.00
2019-02-19T16:42:15.277Z,9.00
2019-02-19T16:44:48.279Z,9.10
2019-02-19T16:47:27.599Z,9.00
2019-02-19T16:50:12.500Z,9.00
2019-02-19T16:52:42.464Z,9.00
2019-02-19T16:55:12.390Z,9.00
2019-02-19T16:57:42.335Z,9.10
2019-02-19T17:00:13.615Z,9.10
2019-02-19T17:02:43.633Z,9.00
2019-02-19T17:05:13.618Z,9.00
2019-02-19T17:07:46.804Z,9.00
2019-02-19T17:10:17.084Z,9.00
2019-02-19T17:12:47.056Z,9.00
2019-02-19T17:15:33.364Z,9.00
2019-02-19T17:18:03.315Z,9.00
2019-02-19T17:20:39.168Z,9.00
2019-02-19T17:23:09.182Z,9.00
2019-02-19T17:25:48.284Z,9.00
2019-02-19T17:28:24.281Z,9.00
2019-02-19T17:30:54.248Z,9.00
2019-02-19T17:33:24.270Z,9.00
2019-02-19T17:35:56.981Z,9.00
2019-02-19T17:38:26.905Z,9.00
2019-02-19T17:40:59.639Z,9.00
2019-02-19T17:43:35.268Z,9.00
2019-02-19T17:46:11.218Z,9.00
2019-02-19T17:48:44.171Z,8.90
2019-02-19T17:51:17.161Z,8.90
2019-02-19T17:53:47.110Z,9.00
2019-02-19T17:56:17.144Z,9.00
2019-02-19T17:58:50.149Z,8.90
2019-02-19T18:01:32.139Z,8.90
2019-02-19T18:04:11.144Z,8.90
2019-02-19T18:06:41.204Z,9.00
2019-02-19T18:09:14.019Z,9.00
2019-02-19T18:12:00.445Z,8.90
2019-02-19T18:14:48.810Z,9.00
2019-02-19T18:17:21.769Z,8.90
2019-02-19T18:19:50.076Z,8.90
2019-02-19T18:22:18.371Z,8.90
2019-02-19T18:24:46.751Z,8.90
2019-02-19T18:27:15.212Z,8.90
2019-02-19T18:29:43.672Z,8.90
2019-02-19T18:32:12.250Z,8.90
2019-02-19T18:34:40.820Z,8.90
2019-02-19T18:37:10.641Z,8.90
2019-02-19T18:39:39.102Z,8.90
2019-02-19T18:42:07.626Z,8.90
2019-02-19T18:44:36.751Z,8.90
2019-02-19T18:47:05.384Z,8.90
2019-02-19T18:49:33.845Z,8.90
2019-02-19T18:52:02.341Z,8.90
2019-02-19T18:54:30.805Z,8.90
2019-02-19T18:56:59.582Z,8.80
2019-02-19T18:59:28.109Z,8.80
2019-02-19T19:01:56.632Z,8.80
2019-02-19T19:04:25.090Z,8.80
2019-02-19T19:06:53.578Z,8.80
2019-02-19T19:09:22.072Z,8.70
2019-02-19T19:11:50.570Z,8.70
2019-02-19T19:14:19.028Z,8.70
2019-02-19T19:16:47.530Z,8.70
2019-02-19T19:19:15.996Z,8.70
2019-02-19T19:21:44.662Z,8.60
2019-02-19T19:24:13.210Z,8.60
2019-02-19T19:26:41.780Z,8.60
2019-02-19T19:29:10.255Z,8.50
2019-02-19T19:31:38.785Z,8.50
2019-02-19T19:34:07.391Z,8.50
2019-02-19T19:36:35.871Z,8.50
2019-02-19T19:39:06.111Z,8.50
2019-02-19T19:41:34.741Z,8.40
2019-02-19T19:44:03.294Z,8.40
2019-02-19T19:46:33.480Z,8.30
2019-02-19T19:49:04.921Z,8.30
2019-02-19T19:51:33.500Z,8.30
2019-02-19T19:54:02.016Z,8.30
2019-02-19T19:56:30.507Z,8.30
2019-02-19T19:58:59.067Z,8.30
2019-02-19T20:01:27.572Z,8.30
2019-02-19T20:03:56.031Z,8.30
2019-02-19T20:06:24.597Z,8.30
2019-02-19T20:08:53.096Z,8.30
2019-02-19T20:11:21.633Z,8.30
2019-02-19T20:13:51.671Z,8.30
2019-02-19T20:16:22.059Z,8.30
2019-02-19T20:18:52.012Z,8.30
2019-02-19T20:21:26.651Z,8.30
2019-02-19T20:23:58.105Z,8.30
2019-02-19T20:26:28.299Z,8.20
2019-02-19T20:28:57.261Z,8.20
2019-02-19T20:31:28.725Z,8.20
2019-02-19T20:33:57.309Z,8.10
2019-02-19T20:36:29.729Z,8.00
2019-02-19T20:39:05.927Z,7.90
2019-02-19T20:41:34.573Z,7.80
2019-02-19T20:44:05.986Z,7.80
2019-02-19T20:46:36.257Z,7.70
2019-02-19T20:49:05.486Z,7.60
2019-02-19T20:51:36.627Z,7.60
2019-02-19T20:54:08.004Z,7.50
2019-02-19T20:56:38.403Z,7.40
2019-02-19T20:59:06.979Z,7.40
2019-02-19T21:01:35.535Z,7.30
2019-02-19T21:04:06.131Z,7.20
2019-02-19T21:06:37.848Z,7.20
2019-02-19T21:09:06.467Z,7.10
2019-02-19T21:11:38.920Z,7.10
2019-02-19T21:14:07.449Z,7.00
2019-02-19T21:16:36.099Z,7.00
2019-02-19T21:19:04.713Z,6.90
2019-02-19T21:21:33.293Z,6.90
2019-02-19T21:24:01.920Z,6.80
2019-02-19T21:26:32.057Z,6.70
2019-02-19T21:29:00.696Z,6.70
2019-02-19T21:31:29.264Z,6.70
2019-02-19T21:33:57.871Z,6.70
2019-02-19T21:36:27.427Z,6.70
2019-02-19T21:38:56.328Z,6.70
2019-02-19T21:41:29.366Z,6.70
2019-02-19T21:43:57.903Z,6.70
2019-02-19T21:46:27.209Z,6.70
2019-02-19T21:48:58.794Z,6.70
2019-02-19T21:51:27.372Z,6.80
2019-02-19T21:53:56.663Z,6.80
2019-02-19T21:56:25.213Z,6.70
2019-02-19T21:58:55.419Z,6.70
2019-02-19T22:01:24.575Z,6.70
2019-02-19T22:03:53.627Z,6.70
2019-02-19T22:06:23.967Z,6.70
2019-02-19T22:08:52.625Z,6.70
2019-02-19T22:11:22.781Z,6.70
2019-02-19T22:13:51.313Z,6.70
2019-02-19T22:16:19.884Z,6.70
2019-02-19T22:18:48.355Z,6.70
2019-02-19T22:21:18.555Z,6.70
2019-02-19T22:23:47.138Z,6.70
2019-02-19T22:26:15.596Z,6.70
2019-02-19T22:28:44.119Z,6.60
2019-02-19T22:31:12.659Z,6.60
2019-02-19T22:33:41.340Z,6.60
2019-02-19T22:36:09.904Z,6.60
2019-02-19T22:38:38.439Z,6.60
2019-02-19T22:41:07.147Z,6.50
2019-02-19T22:43:35.684Z,6.50
2019-02-19T22:46:04.318Z,6.50
2019-02-19T22:48:32.803Z,6.50
2019-02-19T22:51:01.465Z,6.50
2019-02-19T22:53:46.742Z,6.40
2019-02-19T22:56:16.881Z,6.40
2019-02-19T22:58:45.408Z,6.40
2019-02-19T23:01:20.548Z,6.40
2019-02-19T23:03:50.630Z,6.40
2019-02-19T23:06:19.138Z,6.40
2019-02-19T23:08:47.668Z,6.40
2019-02-19T23:11:16.234Z,6.40
2019-02-19T23:13:44.697Z,6.40
2019-02-19T23:16:13.276Z,6.30
2019-02-19T23:18:42.858Z,6.30
2019-02-19T23:21:11.407Z,6.30
2019-02-19T23:23:39.906Z,6.30
2019-02-19T23:26:08.462Z,6.30
2019-02-19T23:28:37.000Z,6.30
2019-02-19T23:31:05.471Z,6.30
2019-02-19T23:33:33.962Z,6.30
2019-02-19T23:36:16.120Z,6.30
2019-02-19T23:38:44.659Z,6.30
2019-02-19T23:41:13.216Z,6.30
2019-02-19T23:43:41.674Z,6.30
2019-02-19T23:46:10.163Z,6.30
2019-02-19T23:48:38.659Z,6.20
2019-02-19T23:51:07.195Z,6.20
2019-02-19T23:53:35.650Z,6.20
2019-02-19T23:56:04.285Z,6.20
2019-02-19T23:58:32.771Z,6.20
